aviador You're here:

KNOZ Decoded Metar

in
Report Time2018-02-22 11:59:00
UTC Time2018-02-22 12:32:36
Flight Rules vfr VFR
WindCalm
Visibility9999 m
Phenomena:N/A
Clouds:N/A
Expected CloudBase > 3,200 ft AGL from Temp-Dew spread
CeilingNone
Temp06°C
Dew Point-2°C (57% RH)
AAT3.8°C
QNH1021 hPa
Raw Report
METAR KNOZ 221159Z AUTO 00000KT 10SM CLR 06/M02 A3016 RMK AO2 SLP166
T00561022 10106 20050 53004=

Extra information for KNOZ:More info

Social comments